Time;durP1;ratioP1;P1;durP2;ratioP2;P2;SDS_P1;SDS_P2;PMS_P1;PMS_P2;Temp;Humidity;BMP_temperature;BMP_pressure;BME280_temperature;BME280_humidity;BME280_pressure;Samples;Min_cycle;Max_cycle;Signal;HPM_P1;HPM_P2
2021/12/10 00:00:28;;;;;;;5.03;2.90;;;4.90;99.90;;;;;;5037646;28;20805;-45
2021/12/10 00:02:55;;;;;;;7.13;2.40;;;4.90;99.90;;;;;;5038482;28;20200;-46
2021/12/10 00:05:29;;;;;;;5.17;2.80;;;4.80;99.90;;;;;;5038652;28;20905;-45
2021/12/10 00:07:55;;;;;;;4.03;2.50;;;4.80;99.90;;;;;;5036359;28;20478;-44
2021/12/10 00:10:25;;;;;;;6.83;3.00;;;4.70;99.90;;;;;;5038047;28;20920;-49
2021/12/10 00:12:52;;;;;;;4.23;2.40;;;4.70;99.90;;;;;;5042548;28;20816;-45
2021/12/10 00:15:25;;;;;;;7.40;2.37;;;4.80;99.90;;;;;;5040143;28;20450;-48
2021/12/10 00:17:52;;;;;;;8.60;2.60;;;4.90;99.90;;;;;;5038550;28;20446;-45
2021/12/10 00:20:19;;;;;;;6.30;2.47;;;5.00;99.90;;;;;;5037974;28;21110;-46
2021/12/10 00:22:54;;;;;;;6.33;2.70;;;5.10;99.90;;;;;;5040430;28;20966;-46
2021/12/10 00:25:23;;;;;;;8.73;3.30;;;5.10;99.90;;;;;;5038054;28;20528;-47
2021/12/10 00:27:52;;;;;;;3.67;2.70;;;5.10;99.90;;;;;;5038858;28;20462;-49
2021/12/10 00:30:26;;;;;;;5.60;2.33;;;5.10;99.90;;;;;;5038124;28;20488;-44
2021/12/10 00:33:20;;;;;;;6.00;2.37;;;5.20;99.90;;;;;;5039706;28;20465;-47
2021/12/10 00:35:46;;;;;;;4.20;2.50;;;5.10;99.90;;;;;;5040603;28;20931;-46
2021/12/10 00:38:14;;;;;;;4.47;2.33;;;5.10;99.90;;;;;;5040548;28;20444;-46
2021/12/10 00:40:41;;;;;;;3.00;2.63;;;5.00;99.90;;;;;;5038833;28;20484;-49
2021/12/10 00:43:07;;;;;;;6.13;2.73;;;5.00;99.90;;;;;;5040886;28;20433;-45
2021/12/10 00:45:33;;;;;;;7.90;2.97;;;5.00;99.90;;;;;;5035436;28;20438;-48
2021/12/10 00:47:59;;;;;;;5.97;2.60;;;4.80;99.90;;;;;;5037380;28;20636;-46
2021/12/10 00:50:37;;;;;;;11.90;2.80;;;4.90;99.90;;;;;;5038064;28;20891;-45
2021/12/10 00:53:03;;;;;;;7.83;2.97;;;4.80;99.90;;;;;;5035676;28;20440;-45
2021/12/10 00:55:30;;;;;;;4.77;2.77;;;4.70;99.90;;;;;;5039180;28;20426;-46
2021/12/10 00:57:57;;;;;;;3.60;2.37;;;4.70;99.90;;;;;;5036071;28;20442;-44
2021/12/10 01:00:27;;;;;;;9.87;3.43;;;4.50;99.90;;;;;;5037792;28;20446;-46
2021/12/10 01:02:52;;;;;;;5.50;2.87;;;4.40;99.90;;;;;;5038156;28;20454;-45
2021/12/10 01:05:19;;;;;;;4.40;2.17;;;4.60;99.90;;;;;;5041417;28;20902;-46
2021/12/10 01:07:46;;;;;;;6.43;3.40;;;4.60;99.90;;;;;;5037182;28;20187;-44
2021/12/10 01:10:24;;;;;;;6.43;2.87;;;4.70;99.90;;;;;;5035661;28;20801;-46
2021/12/10 01:12:53;;;;;;;6.10;2.70;;;4.60;99.90;;;;;;5037507;28;21067;-45
2021/12/10 01:23:57;;;;;;;3.97;3.07;;;4.70;99.90;;;;;;5036079;28;20861;-45
2021/12/10 01:29:24;;;;;;;11.40;3.70;;;4.90;99.90;;;;;;5040575;28;20616;-44
2021/12/10 01:31:50;;;;;;;3.80;3.07;;;4.80;99.90;;;;;;5042676;28;20456;-47
2021/12/10 01:34:16;;;;;;;7.57;3.10;;;4.80;99.90;;;;;;5040679;28;20442;-46
2021/12/10 01:36:42;;;;;;;8.60;3.13;;;4.90;99.90;;;;;;5043511;28;20430;-48
2021/12/10 01:39:12;;;;;;;5.93;2.87;;;4.80;99.90;;;;;;5039506;28;20426;-48
2021/12/10 01:41:40;;;;;;;6.63;3.00;;;4.90;99.90;;;;;;5039538;28;20205;-47
2021/12/10 01:44:26;;;;;;;4.93;2.90;;;4.90;99.90;;;;;;5041755;28;20488;-49
2021/12/10 01:46:52;;;;;;;5.93;3.10;;;4.80;99.90;;;;;;5037450;28;20800;-45
2021/12/10 01:49:18;;;;;;;7.23;3.37;;;4.80;99.90;;;;;;5044177;28;20886;-46
2021/12/10 01:51:45;;;;;;;6.03;2.90;;;4.90;99.90;;;;;;5040081;28;20445;-47
2021/12/10 01:54:17;;;;;;;3.37;2.60;;;4.90;99.90;;;;;;5037763;28;20198;-46
2021/12/10 01:56:43;;;;;;;9.00;3.27;;;4.70;99.90;;;;;;5040646;28;21050;-49
2021/12/10 01:59:12;;;;;;;7.00;3.30;;;5.00;99.90;;;;;;5040118;28;20445;-47
2021/12/10 02:01:44;;;;;;;9.23;3.07;;;5.10;99.90;;;;;;5036554;28;22230;-48
2021/12/10 02:04:12;;;;;;;5.57;3.23;;;5.10;99.90;;;;;;5042266;28;20940;-46
2021/12/10 02:06:39;;;;;;;6.87;2.80;;;5.20;99.90;;;;;;5038599;28;20515;-48
2021/12/10 02:09:06;;;;;;;5.80;3.90;;;5.20;99.90;;;;;;5043239;28;21356;-48
2021/12/10 02:11:32;;;;;;;3.20;2.90;;;5.10;99.90;;;;;;5039997;28;20667;-45
2021/12/10 02:13:58;;;;;;;3.73;2.90;;;5.10;99.90;;;;;;5040944;28;20928;-46
2021/12/10 02:16:23;;;;;;;8.80;2.80;;;5.00;99.90;;;;;;5040659;28;20441;-46
2021/12/10 02:18:50;;;;;;;7.23;3.03;;;4.90;99.90;;;;;;5039529;28;20417;-43
2021/12/10 02:21:19;;;;;;;7.40;3.40;;;4.90;99.90;;;;;;5039803;28;20812;-43
2021/12/10 02:23:57;;;;;;;4.20;2.83;;;4.80;99.90;;;;;;5038346;28;20443;-46
2021/12/10 02:26:30;;;;;;;10.70;3.77;;;4.80;99.90;;;;;;5038975;28;20441;-45
2021/12/10 02:28:56;;;;;;;5.30;3.17;;;4.90;99.90;;;;;;5037710;28;20478;-44
2021/12/10 02:31:22;;;;;;;6.07;3.10;;;5.00;99.90;;;;;;5035655;28;21847;-43
2021/12/10 02:33:48;;;;;;;3.80;2.67;;;5.00;99.90;;;;;;5042160;28;20434;-43
2021/12/10 02:36:14;;;;;;;4.00;2.70;;;5.10;99.90;;;;;;5040573;28;20474;-48
2021/12/10 02:38:42;;;;;;;4.13;2.43;;;5.10;99.90;;;;;;5038845;28;20667;-45
2021/12/10 02:41:08;;;;;;;7.63;3.50;;;5.00;99.90;;;;;;5040358;28;20460;-44
2021/12/10 02:43:35;;;;;;;3.43;2.30;;;5.10;99.90;;;;;;5039445;28;20435;-46
2021/12/10 02:46:01;;;;;;;3.83;2.50;;;5.10;99.90;;;;;;5040472;28;20581;-46
2021/12/10 02:48:27;;;;;;;8.80;2.80;;;5.10;99.90;;;;;;5037833;28;20997;-48
2021/12/10 02:50:55;;;;;;;6.77;3.13;;;5.00;99.90;;;;;;5038507;28;20997;-44
2021/12/10 02:53:27;;;;;;;6.07;2.50;;;4.90;99.90;;;;;;5015861;28;20352;-46
2021/12/10 02:55:54;;;;;;;4.93;2.40;;;5.00;99.90;;;;;;5039153;28;20957;-42
2021/12/10 02:58:20;;;;;;;6.13;2.57;;;5.00;99.90;;;;;;5038017;28;20521;-48
2021/12/10 03:01:35;;;;;;;7.00;2.37;;;5.10;99.90;;;;;;5037426;28;20442;-46
2021/12/10 03:04:01;;;;;;;2.63;2.40;;;5.20;99.90;;;;;;5028522;28;20454;-47
2021/12/10 03:06:28;;;;;;;7.80;2.50;;;5.20;99.90;;;;;;5038314;28;20446;-49
2021/12/10 03:08:55;;;;;;;4.50;2.50;;;5.10;99.90;;;;;;5037535;28;20473;-44
2021/12/10 03:11:25;;;;;;;5.23;2.57;;;5.20;99.90;;;;;;5036299;28;20851;-48
2021/12/10 03:13:52;;;;;;;3.50;2.00;;;5.40;99.90;;;;;;5038888;28;20511;-45
2021/12/10 03:16:18;;;;;;;3.70;2.20;;;5.20;99.90;;;;;;5039726;28;20437;-48
2021/12/10 03:18:44;;;;;;;11.33;2.57;;;5.10;99.90;;;;;;5038441;28;21901;-49
2021/12/10 03:21:10;;;;;;;6.97;2.90;;;5.20;99.90;;;;;;5037602;28;20577;-49
2021/12/10 03:23:44;;;;;;;6.07;2.40;;;5.10;99.90;;;;;;5036567;28;20282;-45
2021/12/10 03:26:11;;;;;;;5.03;2.20;;;5.00;99.90;;;;;;5038595;28;20480;-46
2021/12/10 03:28:38;;;;;;;12.20;2.90;;;5.00;99.90;;;;;;5039292;28;20820;-50
2021/12/10 03:31:06;;;;;;;12.30;2.50;;;4.80;99.90;;;;;;5034145;28;20472;-47
2021/12/10 03:33:31;;;;;;;4.40;2.40;;;4.60;99.90;;;;;;5040479;28;20430;-48
2021/12/10 03:35:57;;;;;;;2.57;1.77;;;4.30;99.90;;;;;;5040047;28;20445;-47
2021/12/10 03:38:25;;;;;;;7.30;2.10;;;4.00;99.90;;;;;;5036860;28;20230;-48
2021/12/10 03:40:51;;;;;;;5.00;1.73;;;4.20;99.90;;;;;;5036031;28;20276;-47
2021/12/10 03:43:17;;;;;;;5.10;2.43;;;4.20;99.90;;;;;;5037401;28;20441;-46
2021/12/10 03:45:51;;;;;;;6.07;1.93;;;4.20;99.90;;;;;;5039796;28;20495;-51
2021/12/10 03:48:22;;;;;;;9.33;2.10;;;3.80;99.90;;;;;;5035230;28;20465;-48
2021/12/10 03:50:49;;;;;;;3.90;1.80;;;3.80;99.90;;;;;;5037407;28;20501;-46
2021/12/10 03:53:16;;;;;;;4.53;2.30;;;3.60;99.90;;;;;;5037513;28;20433;-50
2021/12/10 03:55:42;;;;;;;3.20;2.00;;;3.60;99.90;;;;;;5036088;28;20492;-49
2021/12/10 03:58:08;;;;;;;5.93;2.33;;;3.90;99.90;;;;;;5038120;28;20441;-46
2021/12/10 04:00:40;;;;;;;4.33;2.20;;;3.90;99.90;;;;;;5034202;28;20455;-49
2021/12/10 04:03:06;;;;;;;12.70;2.83;;;4.00;99.90;;;;;;5036339;28;20196;-44
2021/12/10 04:05:32;;;;;;;6.77;2.13;;;4.10;99.90;;;;;;5040518;28;20932;-46
2021/12/10 04:07:58;;;;;;;5.80;2.40;;;4.10;99.90;;;;;;5034493;28;20469;-47
2021/12/10 04:10:24;;;;;;;8.97;2.80;;;4.00;99.90;;;;;;5036930;28;20438;-47
2021/12/10 04:12:51;;;;;;;6.00;2.80;;;4.20;99.90;;;;;;5036282;28;20458;-47
2021/12/10 04:15:21;;;;;;;5.93;2.60;;;4.30;99.90;;;;;;5029273;28;20431;-48
2021/12/10 04:17:49;;;;;;;3.93;1.97;;;4.20;99.90;;;;;;5037240;28;20434;-48
2021/12/10 04:20:15;;;;;;;11.27;2.60;;;4.30;99.90;;;;;;5034456;28;20575;-46
2021/12/10 04:22:46;;;;;;;6.73;2.10;;;4.50;99.90;;;;;;5036350;28;20449;-47
2021/12/10 04:25:14;;;;;;;3.80;2.30;;;4.60;99.90;;;;;;5037426;28;20484;-46
2021/12/10 04:27:43;;;;;;;3.60;1.73;;;4.40;99.90;;;;;;5036038;28;20430;-45
2021/12/10 04:30:12;;;;;;;5.20;1.83;;;4.20;99.90;;;;;;5036711;28;20893;-47
2021/12/10 04:32:39;;;;;;;6.30;1.60;;;4.00;99.90;;;;;;5035777;28;20446;-46
2021/12/10 04:35:05;;;;;;;3.70;2.03;;;4.00;99.90;;;;;;5037206;28;20422;-49
2021/12/10 04:37:31;;;;;;;4.53;1.80;;;3.90;99.90;;;;;;5039222;28;20437;-48
2021/12/10 04:39:59;;;;;;;10.73;2.23;;;4.00;99.90;;;;;;5035804;28;20439;-50
2021/12/10 04:42:25;;;;;;;7.23;2.00;;;4.40;99.90;;;;;;5037884;28;20199;-50
2021/12/10 04:44:54;;;;;;;5.70;2.43;;;4.20;99.90;;;;;;5035453;28;20427;-46
2021/12/10 04:47:20;;;;;;;2.10;1.90;;;4.10;99.90;;;;;;5033170;28;21257;-45
2021/12/10 04:49:45;;;;;;;5.23;2.37;;;4.10;99.90;;;;;;5037530;28;20470;-48
2021/12/10 04:52:11;;;;;;;6.30;2.73;;;4.00;99.90;;;;;;5037984;28;20215;-45
2021/12/10 04:54:37;;;;;;;4.90;2.40;;;4.00;99.90;;;;;;5038048;28;20193;-48
2021/12/10 04:57:04;;;;;;;3.57;1.90;;;4.00;99.90;;;;;;5040264;28;20712;-48
2021/12/10 04:59:32;;;;;;;2.80;1.80;;;3.90;99.90;;;;;;5038999;28;20434;-45
2021/12/10 05:02:00;;;;;;;4.03;2.10;;;4.00;99.90;;;;;;5041499;28;20466;-49
2021/12/10 05:04:27;;;;;;;4.33;1.90;;;3.90;99.90;;;;;;5041341;28;20431;-48
2021/12/10 05:06:53;;;;;;;5.50;2.43;;;3.80;99.90;;;;;;5040078;28;20438;-44
2021/12/10 05:09:20;;;;;;;6.10;2.20;;;3.80;99.90;;;;;;5033744;28;20473;-47
2021/12/10 05:11:47;;;;;;;2.50;1.67;;;3.70;99.90;;;;;;5036747;28;20971;-45
2021/12/10 05:14:14;;;;;;;5.53;2.77;;;3.70;99.90;;;;;;5041101;28;20426;-47
2021/12/10 05:16:43;;;;;;;5.70;2.13;;;3.90;99.90;;;;;;5048772;28;20831;-47
2021/12/10 05:19:11;;;;;;;3.10;2.00;;;3.90;99.90;;;;;;5042412;28;20806;-47
2021/12/10 05:21:39;;;;;;;3.23;2.10;;;3.70;99.90;;;;;;5039342;28;20488;-46
2021/12/10 05:24:06;;;;;;;8.10;2.40;;;3.80;99.90;;;;;;5037942;28;20442;-43
2021/12/10 05:26:34;;;;;;;5.20;2.37;;;3.80;99.90;;;;;;5042423;28;20454;-49
2021/12/10 05:29:00;;;;;;;5.40;2.07;;;4.00;99.90;;;;;;5044530;28;20638;-49
2021/12/10 05:31:26;;;;;;;6.30;2.10;;;4.00;99.90;;;;;;5039729;28;20442;-47
2021/12/10 05:33:52;;;;;;;5.70;2.53;;;4.10;99.90;;;;;;5040515;28;20451;-46
2021/12/10 05:36:18;;;;;;;3.63;2.00;;;4.10;99.90;;;;;;5041638;28;20481;-44
2021/12/10 05:38:43;;;;;;;4.00;1.87;;;4.10;99.90;;;;;;5043029;28;20187;-47
2021/12/10 05:41:10;;;;;;;4.50;1.90;;;4.00;99.90;;;;;;5040081;28;20279;-48
2021/12/10 05:43:38;;;;;;;3.10;2.33;;;3.90;99.90;;;;;;5040720;28;20191;-48
2021/12/10 05:46:04;;;;;;;6.83;2.10;;;4.00;99.90;;;;;;5043566;28;20445;-43
2021/12/10 05:48:31;;;;;;;13.40;4.80;;;4.20;99.90;;;;;;5042046;28;20458;-45
2021/12/10 05:50:57;;;;;;;6.13;2.73;;;4.10;99.90;;;;;;5041784;28;21009;-46
2021/12/10 05:53:24;;;;;;;3.83;2.43;;;3.90;99.90;;;;;;5042971;28;20540;-50
2021/12/10 05:55:50;;;;;;;4.27;2.30;;;4.00;99.90;;;;;;5040033;28;20430;-47
2021/12/10 05:58:16;;;;;;;4.27;2.90;;;3.80;99.90;;;;;;5042053;28;20467;-45
2021/12/10 06:00:54;;;;;;;4.30;3.03;;;3.60;99.90;;;;;;5041878;28;21043;-43
2021/12/10 06:03:23;;;;;;;4.30;2.93;;;3.60;99.90;;;;;;5041716;28;20434;-43
2021/12/10 06:05:49;;;;;;;3.67;2.70;;;4.00;99.90;;;;;;5042586;28;20427;-44
2021/12/10 06:08:16;;;;;;;2.70;2.43;;;4.00;99.90;;;;;;5041158;28;20826;-46
2021/12/10 06:10:43;;;;;;;4.17;2.90;;;3.90;99.90;;;;;;5040260;28;20438;-45
2021/12/10 06:13:09;;;;;;;4.07;2.50;;;3.80;99.90;;;;;;5041390;28;20483;-46
2021/12/10 06:15:36;;;;;;;4.10;2.80;;;4.10;99.90;;;;;;5041636;28;20868;-45
2021/12/10 06:18:02;;;;;;;4.80;2.70;;;4.20;99.90;;;;;;5040842;28;20826;-44
2021/12/10 06:20:31;;;;;;;5.67;2.80;;;4.30;99.90;;;;;;5039757;28;20427;-48
2021/12/10 06:22:59;;;;;;;10.23;3.33;;;4.10;99.90;;;;;;5039410;28;20472;-44
2021/12/10 06:25:28;;;;;;;5.40;3.43;;;4.10;99.90;;;;;;5042442;28;20835;-47
2021/12/10 06:27:54;;;;;;;3.50;3.10;;;4.20;99.90;;;;;;5042320;28;20491;-50
2021/12/10 06:30:23;;;;;;;5.17;4.47;;;4.40;99.90;;;;;;5041649;28;20776;-44
2021/12/10 06:32:52;;;;;;;4.10;3.30;;;4.40;99.90;;;;;;5041918;28;20992;-45
2021/12/10 06:35:20;;;;;;;5.53;4.47;;;4.40;99.90;;;;;;5038658;28;20439;-46
2021/12/10 06:37:46;;;;;;;5.70;3.77;;;4.50;99.90;;;;;;5040734;28;20611;-44
2021/12/10 06:40:19;;;;;;;6.83;3.77;;;4.60;99.90;;;;;;5043833;28;20962;-48
2021/12/10 06:42:45;;;;;;;6.17;3.90;;;4.50;99.90;;;;;;5040609;28;20204;-49
2021/12/10 06:45:14;;;;;;;7.20;4.00;;;4.70;99.90;;;;;;5038837;28;20788;-46
2021/12/10 06:47:41;;;;;;;5.30;4.00;;;4.70;99.90;;;;;;5038511;28;20215;-48
2021/12/10 06:50:08;;;;;;;5.70;4.37;;;4.80;99.90;;;;;;5041282;28;20442;-50
2021/12/10 06:52:34;;;;;;;6.40;4.17;;;4.80;99.90;;;;;;5040488;28;20599;-47
2021/12/10 06:55:00;;;;;;;11.70;5.40;;;4.90;99.90;;;;;;5033615;28;21020;-48
2021/12/10 06:57:26;;;;;;;9.00;6.10;;;4.80;99.90;;;;;;5039113;28;20216;-45
2021/12/10 06:59:53;;;;;;;6.60;5.00;;;4.90;99.90;;;;;;5038896;28;20192;-45
2021/12/10 07:02:19;;;;;;;8.07;5.03;;;5.00;99.90;;;;;;5040364;28;20490;-47
2021/12/10 07:04:45;;;;;;;7.23;5.37;;;5.00;99.90;;;;;;5040228;28;20863;-44
2021/12/10 07:07:11;;;;;;;9.00;5.57;;;4.90;99.90;;;;;;5036638;28;20438;-48
2021/12/10 07:09:37;;;;;;;10.50;5.70;;;4.90;99.90;;;;;;5041179;28;20253;-48
2021/12/10 07:12:05;;;;;;;6.93;5.00;;;4.90;99.90;;;;;;5039713;28;21213;-46
2021/12/10 07:14:30;;;;;;;6.40;5.10;;;4.90;99.90;;;;;;5041363;28;20951;-46
2021/12/10 07:16:56;;;;;;;7.60;4.90;;;5.00;99.90;;;;;;5042096;28;20418;-49
2021/12/10 07:19:22;;;;;;;8.17;5.00;;;5.00;99.90;;;;;;5036022;28;20447;-45
2021/12/10 07:21:48;;;;;;;7.13;5.03;;;4.80;99.90;;;;;;5038317;28;20204;-44
2021/12/10 07:24:17;;;;;;;8.40;5.70;;;4.70;99.90;;;;;;5041026;28;20194;-48
2021/12/10 07:26:43;;;;;;;9.20;5.77;;;4.70;99.90;;;;;;5039005;28;20502;-45
2021/12/10 07:29:09;;;;;;;11.37;5.70;;;4.40;99.90;;;;;;5041504;28;20462;-45
2021/12/10 07:31:36;;;;;;;7.87;5.30;;;4.50;99.90;;;;;;5037416;28;20464;-45
2021/12/10 07:34:03;;;;;;;9.03;6.20;;;4.60;99.90;;;;;;5042703;28;20270;-47
2021/12/10 07:36:29;;;;;;;7.97;5.13;;;4.50;99.90;;;;;;5040191;28;20462;-48
2021/12/10 07:38:56;;;;;;;7.57;5.20;;;4.50;99.90;;;;;;5038339;28;20947;-46
2021/12/10 07:41:22;;;;;;;5.97;4.90;;;4.60;99.90;;;;;;5038499;28;20692;-48
2021/12/10 07:43:48;;;;;;;8.33;5.30;;;4.70;99.90;;;;;;5039617;28;20500;-47
2021/12/10 07:46:14;;;;;;;8.63;5.53;;;4.70;99.90;;;;;;5040654;28;20434;-49
2021/12/10 07:48:41;;;;;;;6.67;4.57;;;4.70;99.90;;;;;;5033517;28;20212;-47
2021/12/10 07:51:11;;;;;;;7.57;5.07;;;4.80;99.90;;;;;;5037581;28;20576;-46
2021/12/10 07:53:38;;;;;;;6.70;4.50;;;4.70;99.90;;;;;;5042914;28;20896;-46
2021/12/10 07:56:06;;;;;;;6.10;4.10;;;4.60;99.90;;;;;;5038812;28;20441;-49
2021/12/10 07:58:33;;;;;;;5.20;3.93;;;4.60;99.90;;;;;;5040817;28;20434;-44
2021/12/10 08:01:04;;;;;;;8.50;5.10;;;4.50;99.90;;;;;;5040029;28;20463;-50
2021/12/10 08:03:29;;;;;;;7.20;4.33;;;4.60;99.90;;;;;;5039738;28;20876;-46
2021/12/10 08:05:55;;;;;;;6.70;4.50;;;4.60;99.90;;;;;;5040115;28;20465;-48
2021/12/10 08:08:21;;;;;;;6.27;3.77;;;4.50;99.90;;;;;;5037210;28;20204;-47
2021/12/10 08:10:48;;;;;;;5.97;3.87;;;4.60;99.90;;;;;;5039774;28;20290;-45
2021/12/10 08:13:16;;;;;;;6.33;3.67;;;4.80;99.90;;;;;;5042389;28;20438;-47
2021/12/10 08:15:42;;;;;;;5.93;3.80;;;4.60;99.90;;;;;;5039897;28;20493;-48
2021/12/10 08:18:09;;;;;;;4.63;3.70;;;4.80;99.90;;;;;;5040151;28;20442;-46
2021/12/10 08:20:35;;;;;;;4.90;3.50;;;4.90;99.90;;;;;;5039523;28;20438;-50
2021/12/10 08:23:02;;;;;;;3.87;3.33;;;5.10;99.90;;;;;;5040642;28;20978;-49
2021/12/10 08:25:28;;;;;;;4.33;3.30;;;5.50;99.90;;;;;;5039164;28;20199;-45
2021/12/10 08:27:56;;;;;;;4.80;3.27;;;5.70;99.90;;;;;;5037528;28;20830;-47
2021/12/10 08:30:23;;;;;;;5.00;3.40;;;5.90;99.90;;;;;;5039972;28;20432;-51
2021/12/10 08:32:52;;;;;;;4.00;3.17;;;5.90;99.90;;;;;;5039534;28;20480;-47
2021/12/10 08:35:21;;;;;;;6.30;3.40;;;5.80;99.90;;;;;;5039771;28;20434;-49
2021/12/10 08:37:47;;;;;;;4.90;3.50;;;5.60;99.90;;;;;;5038378;28;20569;-49
2021/12/10 08:40:21;;;;;;;9.30;3.60;;;5.60;99.90;;;;;;5037063;28;20938;-51
2021/12/10 08:42:47;;;;;;;5.03;3.80;;;5.60;99.90;;;;;;5039720;28;20465;-49
2021/12/10 08:45:13;;;;;;;6.13;3.90;;;5.20;99.90;;;;;;5037546;28;21020;-50
2021/12/10 08:47:39;;;;;;;5.60;4.30;;;5.40;99.90;;;;;;5037528;28;20540;-46
2021/12/10 08:50:07;;;;;;;4.47;3.70;;;5.50;99.90;;;;;;5039166;28;20524;-50
2021/12/10 08:52:33;;;;;;;6.43;4.47;;;5.40;99.90;;;;;;5039770;28;20683;-47
2021/12/10 08:54:59;;;;;;;7.20;4.03;;;5.40;99.90;;;;;;5038249;28;20928;-45
2021/12/10 08:57:26;;;;;;;6.80;4.03;;;5.30;99.90;;;;;;5035899;28;20267;-48
2021/12/10 08:59:53;;;;;;;6.63;4.20;;;5.40;99.90;;;;;;5039692;28;20207;-48
2021/12/10 09:02:19;;;;;;;5.67;4.20;;;5.20;99.90;;;;;;5037415;28;20466;-45
2021/12/10 09:04:45;;;;;;;8.37;5.00;;;4.90;99.90;;;;;;5038852;28;20434;-47
2021/12/10 09:07:15;;;;;;;7.07;4.30;;;4.80;99.90;;;;;;5039107;28;20480;-49
2021/12/10 09:09:44;;;;;;;5.00;3.50;;;4.90;99.90;;;;;;5036303;28;20549;-47
2021/12/10 09:12:14;;;;;;;8.20;2.90;;;4.70;99.90;;;;;;5036384;28;20489;-51
2021/12/10 09:14:45;;;;;;;4.57;3.03;;;4.60;99.90;;;;;;5037419;28;20439;-48
2021/12/10 09:17:17;;;;;;;5.23;2.67;;;4.60;99.90;;;;;;5036277;28;20439;-48
2021/12/10 09:19:43;;;;;;;4.20;2.60;;;4.40;99.90;;;;;;5039455;28;20422;-46
2021/12/10 09:22:09;;;;;;;5.43;3.10;;;4.20;99.90;;;;;;5037562;28;20538;-43
2021/12/10 09:24:37;;;;;;;7.77;2.90;;;4.20;99.90;;;;;;5036783;28;20850;-45
2021/12/10 09:27:06;;;;;;;5.27;3.20;;;4.20;99.90;;;;;;5038719;28;20434;-46
2021/12/10 09:29:35;;;;;;;7.53;2.93;;;4.20;99.90;;;;;;5034339;28;20470;-46
2021/12/10 09:32:04;;;;;;;5.30;2.63;;;4.20;99.90;;;;;;5040433;28;20463;-46
2021/12/10 09:34:29;;;;;;;6.97;2.67;;;4.00;99.90;;;;;;5036481;28;20441;-46
2021/12/10 09:36:56;;;;;;;3.50;2.83;;;4.00;99.90;;;;;;5038935;28;20422;-50
2021/12/10 09:39:22;;;;;;;3.60;2.73;;;3.80;99.90;;;;;;5039063;28;20184;-45
2021/12/10 09:41:48;;;;;;;7.60;3.70;;;3.90;99.90;;;;;;5036313;28;20456;-46
2021/12/10 09:44:15;;;;;;;5.73;3.33;;;3.90;99.90;;;;;;5038563;28;20533;-45
2021/12/10 09:46:42;;;;;;;4.60;3.67;;;3.90;99.90;;;;;;5038562;28;20812;-46
2021/12/10 09:49:10;;;;;;;5.30;2.90;;;3.90;99.90;;;;;;5043248;28;20484;-47
2021/12/10 09:51:43;;;;;;;5.57;3.00;;;4.00;99.90;;;;;;5041873;28;20453;-49
2021/12/10 09:54:13;;;;;;;4.80;3.70;;;4.00;99.90;;;;;;5040758;28;20800;-51
2021/12/10 09:56:41;;;;;;;8.23;3.50;;;3.90;99.90;;;;;;5043340;28;20438;-45
2021/12/10 09:59:07;;;;;;;9.40;4.00;;;3.90;99.90;;;;;;5038996;28;20980;-46
2021/12/10 10:01:41;;;;;;;6.77;3.83;;;4.10;99.90;;;;;;5040881;28;20517;-47
2021/12/10 10:04:09;;;;;;;10.23;4.00;;;4.10;99.90;;;;;;5038839;28;20261;-47
2021/12/10 10:06:39;;;;;;;7.67;3.70;;;4.20;99.90;;;;;;5043407;28;20491;-47
2021/12/10 10:09:07;;;;;;;13.80;3.63;;;4.10;99.90;;;;;;5041611;28;20476;-45
2021/12/10 10:11:34;;;;;;;7.60;4.17;;;4.20;99.90;;;;;;5040028;28;20449;-49
2021/12/10 10:14:00;;;;;;;7.53;4.20;;;4.30;99.90;;;;;;5044583;28;20793;-49
2021/12/10 10:16:28;;;;;;;8.13;4.00;;;4.70;99.90;;;;;;5039209;28;20492;-50
2021/12/10 10:18:54;;;;;;;9.10;4.30;;;4.90;99.90;;;;;;5041742;28;21179;-48
2021/12/10 10:21:25;;;;;;;8.83;3.90;;;4.90;99.90;;;;;;5041380;28;20549;-46
2021/12/10 10:23:50;;;;;;;6.33;5.40;;;4.90;99.90;;;;;;5040196;28;20438;-47
2021/12/10 10:26:25;;;;;;;8.57;3.97;;;5.10;99.90;;;;;;5042977;28;20560;-46
2021/12/10 10:28:52;;;;;;;8.63;4.23;;;5.30;99.90;;;;;;5040008;28;20233;-45
2021/12/10 10:31:22;;;;;;;4.53;3.70;;;5.40;99.90;;;;;;5035796;28;20539;-48
2021/12/10 10:33:57;;;;;;;5.00;3.63;;;5.50;99.90;;;;;;5040556;28;20563;-47
2021/12/10 10:36:26;;;;;;;6.30;4.00;;;5.60;99.90;;;;;;5038326;28;20447;-49
2021/12/10 10:38:58;;;;;;;6.60;3.50;;;5.50;99.90;;;;;;5042745;28;20457;-47
2021/12/10 10:41:27;;;;;;;7.87;3.70;;;5.50;99.90;;;;;;5035508;28;20496;-49
2021/12/10 10:43:54;;;;;;;8.50;3.57;;;5.40;99.90;;;;;;5040110;28;20515;-45
2021/12/10 10:46:20;;;;;;;6.37;3.40;;;5.60;99.90;;;;;;5041130;28;20438;-49
2021/12/10 10:48:48;;;;;;;8.53;4.70;;;5.80;99.90;;;;;;5040699;28;20513;-49
2021/12/10 10:51:18;;;;;;;14.90;4.70;;;5.90;99.90;;;;;;5036190;28;20199;-47
2021/12/10 10:53:51;;;;;;;8.20;4.70;;;5.90;99.90;;;;;;5038016;28;20514;-47
2021/12/10 10:56:26;;;;;;;13.77;4.53;;;5.80;99.90;;;;;;5040641;28;20496;-45
2021/12/10 10:58:56;;;;;;;5.90;3.83;;;5.90;99.90;;;;;;5035556;28;21191;-45
2021/12/10 11:01:28;;;;;;;6.60;3.97;;;6.00;99.90;;;;;;5039929;28;20465;-48
2021/12/10 11:04:24;;;;;;;5.00;4.50;;;6.10;99.90;;;;;;5040265;28;20844;-47
2021/12/10 11:06:53;;;;;;;6.53;4.20;;;6.10;99.90;;;;;;5039927;28;20438;-45
2021/12/10 11:09:27;;;;;;;6.30;3.77;;;6.00;99.90;;;;;;5039254;28;20879;-49
2021/12/10 11:12:01;;;;;;;8.27;4.70;;;5.90;99.90;;;;;;5039474;28;20909;-47
2021/12/10 11:14:40;;;;;;;8.07;4.60;;;5.90;99.90;;;;;;5040751;28;20434;-50
2021/12/10 11:17:21;;;;;;;10.10;4.53;;;5.90;99.90;;;;;;5039286;28;20437;-51
2021/12/10 11:19:57;;;;;;;6.20;4.70;;;5.90;99.90;;;;;;5041488;28;20427;-45
2021/12/10 11:22:25;;;;;;;5.00;3.90;;;6.00;99.90;;;;;;5041151;28;20534;-46
2021/12/10 11:24:55;;;;;;;14.57;6.47;;;5.90;99.90;;;;;;5041404;28;20467;-48
2021/12/10 11:27:28;;;;;;;6.43;5.03;;;5.90;99.90;;;;;;5041026;28;20442;-49
2021/12/10 11:30:03;;;;;;;6.73;4.83;;;5.90;99.90;;;;;;5035807;28;20566;-46
2021/12/10 11:32:46;;;;;;;9.33;5.57;;;5.90;99.90;;;;;;5038400;28;20449;-52
2021/12/10 11:35:11;;;;;;;9.80;5.40;;;5.90;99.90;;;;;;5038828;28;20789;-46
2021/12/10 11:37:57;;;;;;;6.77;4.47;;;6.00;99.90;;;;;;5041374;28;20507;-45
2021/12/10 11:40:51;;;;;;;4.87;4.03;;;6.00;99.90;;;;;;5037688;28;20222;-49
2021/12/10 11:43:43;;;;;;;8.33;4.33;;;6.00;99.90;;;;;;5034685;28;20449;-44
2021/12/10 11:46:46;;;;;;;6.50;3.97;;;6.10;99.90;;;;;;5037069;28;20442;-51
2021/12/10 11:49:35;;;;;;;4.80;4.10;;;6.10;99.90;;;;;;5041343;28;20549;-50
2021/12/10 11:52:00;;;;;;;9.03;5.03;;;5.90;99.90;;;;;;5039399;28;20457;-45
2021/12/10 11:54:38;;;;;;;8.13;4.67;;;5.70;99.90;;;;;;5038777;28;20422;-48
2021/12/10 11:57:12;;;;;;;5.60;3.83;;;5.80;99.90;;;;;;5042435;28;20179;-44
2021/12/10 12:00:00;;;;;;;4.00;3.53;;;6.00;99.90;;;;;;5039853;28;20466;-48
2021/12/10 12:02:26;;;;;;;5.80;3.60;;;6.20;99.90;;;;;;5039936;28;20446;-47
2021/12/10 12:04:53;;;;;;;5.93;3.37;;;6.30;99.90;;;;;;5040984;28;20434;-47
2021/12/10 12:07:36;;;;;;;4.77;2.97;;;6.00;99.90;;;;;;5040659;28;20234;-47
2021/12/10 12:10:27;;;;;;;4.67;2.13;;;6.20;99.90;;;;;;5040860;28;20876;-46
2021/12/10 12:13:02;;;;;;;4.03;2.20;;;6.30;99.90;;;;;;5036755;28;20462;-47
2021/12/10 12:15:35;;;;;;;5.00;2.20;;;6.00;99.90;;;;;;5036896;28;20445;-49
2021/12/10 12:18:09;;;;;;;2.67;2.10;;;5.50;99.90;;;;;;5040173;28;20430;-44
2021/12/10 12:20:44;;;;;;;2.70;1.80;;;5.50;99.90;;;;;;5037818;28;20425;-44
2021/12/10 12:26:26;;;;;;;3.20;2.00;;;5.40;99.90;;;;;;5039799;28;20533;-46
2021/12/10 12:29:02;;;;;;;5.73;1.90;;;5.30;99.90;;;;;;5033651;28;20536;-47
2021/12/10 12:31:40;;;;;;;3.03;2.10;;;5.20;99.90;;;;;;5040872;28;20457;-44
2021/12/10 12:34:08;;;;;;;2.83;1.93;;;5.20;99.90;;;;;;5037599;28;20436;-47
2021/12/10 12:36:54;;;;;;;2.37;1.63;;;5.50;99.90;;;;;;5041621;28;20441;-49
2021/12/10 12:39:44;;;;;;;2.50;1.57;;;5.60;99.90;;;;;;5037933;28;20426;-46
2021/12/10 12:42:23;;;;;;;4.03;1.93;;;5.40;99.90;;;;;;5037965;28;20454;-48
2021/12/10 12:45:06;;;;;;;1.60;1.40;;;5.50;99.90;;;;;;5038695;28;20434;-45
2021/12/10 12:47:44;;;;;;;1.57;1.37;;;5.60;99.90;;;;;;5039575;28;20446;-46
2021/12/10 12:50:30;;;;;;;2.37;2.17;;;5.50;99.90;;;;;;5038652;28;20857;-44
2021/12/10 12:53:09;;;;;;;3.13;1.90;;;5.70;99.90;;;;;;5039937;28;20811;-45
2021/12/10 12:55:43;;;;;;;2.93;2.13;;;5.80;99.90;;;;;;5029442;28;20517;-45
2021/12/10 12:58:22;;;;;;;5.13;2.10;;;5.60;99.90;;;;;;5036116;28;20475;-45
2021/12/10 13:01:03;;;;;;;2.87;2.30;;;5.50;99.90;;;;;;5038347;28;20835;-51
2021/12/10 13:03:35;;;;;;;5.50;2.47;;;5.60;99.90;;;;;;5038942;28;20438;-50
2021/12/10 13:06:17;;;;;;;5.27;3.20;;;5.60;99.90;;;;;;5039801;28;20492;-50
2021/12/10 13:08:53;;;;;;;3.83;2.60;;;5.60;99.90;;;;;;5039800;28;20513;-45
2021/12/10 13:11:27;;;;;;;2.63;2.40;;;5.50;99.90;;;;;;5036564;28;20524;-44
2021/12/10 13:14:14;;;;;;;4.93;2.37;;;5.50;99.90;;;;;;5038733;28;20929;-45
2021/12/10 13:16:44;;;;;;;3.00;2.57;;;5.40;99.90;;;;;;5035768;28;20814;-46
2021/12/10 13:19:15;;;;;;;3.90;2.33;;;5.40;99.90;;;;;;5039031;28;20901;-51
2021/12/10 13:21:46;;;;;;;4.37;2.67;;;5.20;99.90;;;;;;5041771;28;20478;-47